createdAt,value
2022-11-29T00:00:30.685Z,7.76
2022-11-29T00:02:57.633Z,7.77
2022-11-29T00:05:24.238Z,7.76
2022-11-29T00:07:52.189Z,7.76
2022-11-29T00:10:19.076Z,7.77
2022-11-29T00:12:46.916Z,7.79
2022-11-29T00:15:13.450Z,7.80
2022-11-29T00:17:40.019Z,7.80
2022-11-29T00:20:07.838Z,7.82
2022-11-29T00:22:34.429Z,7.81
2022-11-29T00:25:02.837Z,7.85
2022-11-29T00:27:29.586Z,7.84
2022-11-29T00:29:56.122Z,7.81
2022-11-29T00:32:22.783Z,7.78
2022-11-29T00:34:49.345Z,7.76
2022-11-29T00:37:15.934Z,7.79
2022-11-29T00:39:42.567Z,7.78
2022-11-29T00:42:10.496Z,7.76
2022-11-29T00:44:36.987Z,7.75
2022-11-29T00:47:03.624Z,7.77
2022-11-29T00:49:30.118Z,7.77
2022-11-29T00:51:56.710Z,7.73
2022-11-29T00:54:23.260Z,7.73
2022-11-29T00:56:49.834Z,7.76
2022-11-29T00:59:17.697Z,7.77
2022-11-29T01:01:44.529Z,7.76
2022-11-29T01:04:11.209Z,7.62
2022-11-29T01:06:37.818Z,7.77
2022-11-29T01:09:04.664Z,7.69
2022-11-29T01:11:31.241Z,7.80
2022-11-29T01:14:00.350Z,7.79
2022-11-29T01:16:29.689Z,7.78
2022-11-29T01:18:56.479Z,7.80
2022-11-29T01:21:24.541Z,7.80
2022-11-29T01:23:53.233Z,7.79
2022-11-29T01:26:22.210Z,7.78
2022-11-29T01:28:52.280Z,7.79
2022-11-29T01:31:21.277Z,7.79
2022-11-29T01:33:53.241Z,7.65
2022-11-29T01:36:19.809Z,7.64
2022-11-29T01:38:46.615Z,7.76
2022-11-29T01:41:16.382Z,7.74
2022-11-29T01:43:59.590Z,7.80
2022-11-29T01:46:27.618Z,7.80
2022-11-29T01:49:00.165Z,7.80
2022-11-29T01:51:28.202Z,7.82
2022-11-29T01:53:55.208Z,7.78
2022-11-29T01:56:23.421Z,7.83
2022-11-29T01:58:50.172Z,7.84
2022-11-29T02:01:16.898Z,7.85
2022-11-29T02:03:43.541Z,7.85
2022-11-29T02:06:11.559Z,7.85
2022-11-29T02:08:40.607Z,7.86
2022-11-29T02:11:37.701Z,7.87
2022-11-29T02:14:18.417Z,7.77
2022-11-29T02:16:56.881Z,7.87
2022-11-29T02:19:47.176Z,7.88
2022-11-29T02:22:20.679Z,7.89
2022-11-29T02:25:06.904Z,7.82
2022-11-29T02:28:07.520Z,7.90
2022-11-29T02:31:04.257Z,7.89
2022-11-29T02:33:53.456Z,7.88
2022-11-29T02:36:45.257Z,7.87
2022-11-29T02:39:39.249Z,7.86
2022-11-29T02:42:26.618Z,7.87
2022-11-29T02:45:07.926Z,7.87
2022-11-29T02:47:51.383Z,7.87
2022-11-29T02:50:29.806Z,7.88
2022-11-29T02:53:05.446Z,7.82
2022-11-29T02:55:37.268Z,7.92
2022-11-29T02:58:13.675Z,7.93
2022-11-29T03:00:50.006Z,7.93
2022-11-29T03:03:23.361Z,7.94
2022-11-29T03:05:57.415Z,7.78
2022-11-29T03:08:34.200Z,7.95
2022-11-29T03:11:09.265Z,7.93
2022-11-29T03:13:48.059Z,7.94
2022-11-29T03:16:28.342Z,7.95
2022-11-29T03:19:05.371Z,7.94
2022-11-29T03:21:41.038Z,7.96
2022-11-29T03:24:15.687Z,7.96
2022-11-29T03:26:45.455Z,7.93
2022-11-29T03:29:19.031Z,7.91
2022-11-29T03:31:52.571Z,8.00
2022-11-29T03:34:29.864Z,7.99
2022-11-29T03:37:06.107Z,8.00
2022-11-29T03:39:41.347Z,7.94
2022-11-29T03:42:13.119Z,8.00
2022-11-29T03:44:46.654Z,8.00
2022-11-29T03:47:17.924Z,8.01
2022-11-29T03:49:49.246Z,8.00
2022-11-29T03:52:21.288Z,8.00
2022-11-29T03:55:00.419Z,8.02
2022-11-29T03:57:34.180Z,8.02
2022-11-29T04:00:05.441Z,8.02
2022-11-29T04:03:11.200Z,8.03
2022-11-29T04:05:55.749Z,8.03
2022-11-29T04:08:59.678Z,8.01
2022-11-29T04:11:50.660Z,8.02
2022-11-29T04:14:31.107Z,7.87
2022-11-29T04:17:17.308Z,7.98
2022-11-29T04:20:05.304Z,7.98
2022-11-29T04:22:54.856Z,7.97
2022-11-29T04:25:34.421Z,7.96
2022-11-29T04:28:31.917Z,8.00
2022-11-29T04:31:09.357Z,8.03
2022-11-29T04:34:03.268Z,8.07
2022-11-29T04:36:48.712Z,8.08
2022-11-29T04:39:45.539Z,8.10
2022-11-29T04:42:35.976Z,8.12
2022-11-29T04:45:35.199Z,8.15
2022-11-29T04:48:21.032Z,8.16
2022-11-29T04:50:57.860Z,8.12
2022-11-29T04:53:34.868Z,8.13
2022-11-29T04:56:12.443Z,8.20
2022-11-29T04:58:44.528Z,8.21
2022-11-29T05:01:21.596Z,8.23
2022-11-29T05:03:57.236Z,8.25
2022-11-29T05:06:29.065Z,8.25
2022-11-29T05:09:07.074Z,8.24
2022-11-29T05:11:49.977Z,8.25
2022-11-29T05:14:25.112Z,8.24
2022-11-29T05:17:09.375Z,8.26
2022-11-29T05:19:56.200Z,8.26
2022-11-29T05:22:32.822Z,8.09
2022-11-29T05:25:18.868Z,8.22
2022-11-29T05:27:48.652Z,8.22
2022-11-29T05:30:17.935Z,8.24
2022-11-29T05:32:56.002Z,8.16
2022-11-29T05:35:51.581Z,8.19
2022-11-29T05:38:38.344Z,8.22
2022-11-29T05:41:20.173Z,8.23
2022-11-29T05:43:57.925Z,8.27
2022-11-29T05:46:30.839Z,8.28
2022-11-29T05:49:10.276Z,8.29
2022-11-29T05:51:45.713Z,8.30
2022-11-29T05:54:24.927Z,8.30
2022-11-29T05:57:05.123Z,8.29
2022-11-29T05:59:34.206Z,8.32
2022-11-29T06:02:09.728Z,8.33
2022-11-29T06:04:50.941Z,8.34
2022-11-29T06:07:22.911Z,8.35
2022-11-29T06:10:00.540Z,8.38
2022-11-29T06:12:28.701Z,8.38
2022-11-29T06:15:39.980Z,8.38
2022-11-29T06:18:27.214Z,8.38
2022-11-29T06:21:10.838Z,8.39
2022-11-29T06:23:54.639Z,8.38
2022-11-29T06:26:47.637Z,8.39
2022-11-29T06:29:23.754Z,8.41
2022-11-29T06:31:58.566Z,8.43
2022-11-29T06:34:33.001Z,8.45
2022-11-29T06:37:05.497Z,8.44
2022-11-29T06:39:32.689Z,8.45
2022-11-29T06:41:59.177Z,8.46
2022-11-29T06:44:26.348Z,8.49
2022-11-29T06:47:00.949Z,8.40
2022-11-29T06:49:30.018Z,8.48
2022-11-29T06:52:19.273Z,8.47
2022-11-29T06:54:58.256Z,8.48
2022-11-29T06:57:34.172Z,8.45
2022-11-29T07:00:06.096Z,8.49
2022-11-29T07:02:44.335Z,8.42
2022-11-29T07:05:19.971Z,8.45
2022-11-29T07:07:48.977Z,8.21
2022-11-29T07:10:17.837Z,8.42
2022-11-29T07:12:45.872Z,8.51
2022-11-29T07:15:15.218Z,8.57
2022-11-29T07:17:53.767Z,8.58
2022-11-29T07:20:26.433Z,8.27
2022-11-29T07:23:09.357Z,8.62
2022-11-29T07:25:46.989Z,8.59
2022-11-29T07:28:27.148Z,8.62
2022-11-29T07:31:05.419Z,8.63
2022-11-29T07:33:43.270Z,8.63
2022-11-29T07:36:18.148Z,8.59
2022-11-29T07:38:57.028Z,8.58
2022-11-29T07:41:32.577Z,8.68
2022-11-29T07:44:08.444Z,8.67
2022-11-29T07:46:35.008Z,8.72
2022-11-29T07:49:01.516Z,8.66
2022-11-29T07:51:28.146Z,8.66
2022-11-29T07:53:56.036Z,8.65
2022-11-29T07:56:22.764Z,8.76
2022-11-29T07:58:49.364Z,8.77
2022-11-29T08:01:16.009Z,8.78
2022-11-29T08:03:42.539Z,8.77
2022-11-29T08:06:09.736Z,8.80
2022-11-29T08:08:40.704Z,8.83
2022-11-29T08:11:12.751Z,8.83
2022-11-29T08:13:39.341Z,8.82
2022-11-29T08:16:06.653Z,8.69
2022-11-29T08:18:33.256Z,8.89
2022-11-29T08:21:05.553Z,8.82
2022-11-29T08:23:32.087Z,8.78
2022-11-29T08:25:59.804Z,8.83
2022-11-29T08:28:27.761Z,8.86
2022-11-29T08:31:01.086Z,8.77
2022-11-29T08:33:27.786Z,8.45
2022-11-29T08:35:54.302Z,8.91
2022-11-29T08:38:20.897Z,8.95
2022-11-29T08:40:47.626Z,8.98
2022-11-29T08:43:14.255Z,9.02
2022-11-29T08:45:42.162Z,9.05
2022-11-29T08:48:08.749Z,9.07
2022-11-29T08:50:35.255Z,9.07
2022-11-29T08:53:01.898Z,9.08
2022-11-29T08:55:32.665Z,9.11
2022-11-29T08:58:04.381Z,9.13
2022-11-29T09:00:31.632Z,9.12
2022-11-29T09:03:01.100Z,9.16
2022-11-29T09:05:27.707Z,9.18
2022-11-29T09:07:54.254Z,9.19
2022-11-29T09:10:20.861Z,9.21
2022-11-29T09:12:47.374Z,9.13
2022-11-29T09:15:13.901Z,9.18
2022-11-29T09:17:40.375Z,9.17
2022-11-29T09:20:09.285Z,9.21
2022-11-29T09:22:35.786Z,9.21
2022-11-29T09:25:02.489Z,9.24
2022-11-29T09:27:28.998Z,9.29
2022-11-29T09:29:55.608Z,9.34
2022-11-29T09:32:22.106Z,9.34
2022-11-29T09:34:48.795Z,9.39
2022-11-29T09:37:16.632Z,9.42
2022-11-29T09:39:43.220Z,9.47
2022-11-29T09:42:23.877Z,9.47
2022-11-29T09:44:58.440Z,9.28
2022-11-29T09:47:36.829Z,9.34
2022-11-29T09:50:19.396Z,9.44
2022-11-29T09:52:54.069Z,9.37
2022-11-29T09:55:38.889Z,9.34
2022-11-29T09:58:10.396Z,9.31
2022-11-29T10:00:45.213Z,9.30
2022-11-29T10:03:17.403Z,9.18
2022-11-29T10:05:47.636Z,9.08
2022-11-29T10:08:21.756Z,9.26
2022-11-29T10:10:50.689Z,9.27
2022-11-29T10:13:22.430Z,9.05
2022-11-29T10:15:52.009Z,9.28
2022-11-29T10:18:23.154Z,9.11
2022-11-29T10:20:52.234Z,9.43
2022-11-29T10:23:24.082Z,9.31
2022-11-29T10:25:53.324Z,9.55
2022-11-29T10:28:22.150Z,9.62
2022-11-29T10:30:49.237Z,9.57
2022-11-29T10:33:19.324Z,9.73
2022-11-29T10:35:47.158Z,9.79
2022-11-29T10:38:30.197Z,9.62
2022-11-29T10:41:05.667Z,9.78
2022-11-29T10:43:32.314Z,9.79
2022-11-29T10:45:59.123Z,9.98
2022-11-29T10:48:28.322Z,9.96
2022-11-29T10:50:54.889Z,10.00
2022-11-29T10:53:25.384Z,10.05
2022-11-29T10:55:58.957Z,10.10
2022-11-29T10:58:28.994Z,10.12
2022-11-29T11:00:58.184Z,10.12
2022-11-29T11:03:33.437Z,10.12
2022-11-29T11:06:04.082Z,10.01
2022-11-29T11:08:32.530Z,10.05
2022-11-29T11:11:01.760Z,10.02
2022-11-29T11:13:32.416Z,10.07
2022-11-29T11:16:14.347Z,10.21
2022-11-29T11:18:41.103Z,10.19
2022-11-29T11:21:10.497Z,10.33
2022-11-29T11:23:45.790Z,10.34
2022-11-29T11:26:14.473Z,10.21
2022-11-29T11:28:49.086Z,10.07
2022-11-29T11:31:25.086Z,9.95
2022-11-29T11:33:51.776Z,10.17
2022-11-29T11:36:23.736Z,10.14
2022-11-29T11:38:52.035Z,10.07
2022-11-29T11:41:22.629Z,9.79
2022-11-29T11:43:57.256Z,10.06
2022-11-29T11:46:44.123Z,10.04
2022-11-29T11:49:12.693Z,10.02
2022-11-29T11:51:42.290Z,10.06
2022-11-29T11:54:14.528Z,9.97
2022-11-29T11:56:41.334Z,10.05
2022-11-29T11:59:17.894Z,9.96
2022-11-29T12:01:44.677Z,9.93
2022-11-29T12:04:15.544Z,9.86
2022-11-29T12:06:48.668Z,9.95
2022-11-29T12:09:24.989Z,9.90
2022-11-29T12:12:00.456Z,9.87
2022-11-29T12:14:36.689Z,9.80
2022-11-29T12:17:15.525Z,9.70
2022-11-29T12:19:59.034Z,9.84
2022-11-29T12:22:33.033Z,9.87
2022-11-29T12:25:05.275Z,9.83
2022-11-29T12:27:32.129Z,9.81
2022-11-29T12:30:00.209Z,9.71
2022-11-29T12:32:48.734Z,9.68
2022-11-29T12:35:49.382Z,9.67
2022-11-29T12:38:33.131Z,9.67
2022-11-29T12:41:11.502Z,9.58
2022-11-29T12:43:52.586Z,9.62
2022-11-29T12:46:24.293Z,9.65
2022-11-29T12:48:56.854Z,9.59
2022-11-29T12:51:31.902Z,9.58
2022-11-29T12:54:14.670Z,9.60
2022-11-29T12:56:48.475Z,9.62
2022-11-29T12:59:25.368Z,9.65
2022-11-29T13:02:13.916Z,9.66
2022-11-29T13:04:46.098Z,9.58
2022-11-29T13:07:22.602Z,9.49
2022-11-29T13:10:02.832Z,9.22
2022-11-29T13:12:36.504Z,9.57
2022-11-29T13:15:06.823Z,9.57
2022-11-29T13:17:42.443Z,9.58
2022-11-29T13:20:30.684Z,9.55
2022-11-29T13:23:04.978Z,9.57
2022-11-29T13:25:36.915Z,9.56
2022-11-29T13:28:07.132Z,9.59
2022-11-29T13:30:34.861Z,9.61
2022-11-29T13:33:12.040Z,9.62
2022-11-29T13:35:45.801Z,9.60
2022-11-29T13:38:19.460Z,9.60
2022-11-29T13:40:56.610Z,9.60
2022-11-29T13:43:30.750Z,9.61
2022-11-29T13:46:06.424Z,9.61
2022-11-29T13:48:45.669Z,9.62
2022-11-29T13:51:30.509Z,9.67
2022-11-29T13:53:59.455Z,9.66
2022-11-29T13:56:32.856Z,9.60
2022-11-29T13:59:00.844Z,9.48
2022-11-29T14:01:28.422Z,9.66
2022-11-29T14:04:06.126Z,9.63
2022-11-29T14:06:34.807Z,9.61
2022-11-29T14:09:23.829Z,9.57
2022-11-29T14:11:58.229Z,9.49
2022-11-29T14:14:28.911Z,9.49
2022-11-29T14:16:59.329Z,9.41
2022-11-29T14:19:33.520Z,9.42
2022-11-29T14:22:17.290Z,9.35
2022-11-29T14:24:56.668Z,9.42
2022-11-29T14:27:46.304Z,9.43
2022-11-29T14:30:47.200Z,9.41
2022-11-29T14:33:58.385Z,9.40
2022-11-29T14:36:43.484Z,9.38
2022-11-29T14:39:31.031Z,9.33
2022-11-29T14:42:09.597Z,9.13
2022-11-29T14:44:44.251Z,9.33
2022-11-29T14:47:20.310Z,9.33
2022-11-29T14:49:47.069Z,9.19
2022-11-29T14:52:26.099Z,9.38
2022-11-29T14:54:57.284Z,9.37
2022-11-29T14:57:53.393Z,9.37
2022-11-29T15:00:21.606Z,9.34
2022-11-29T15:02:50.806Z,9.19
2022-11-29T15:05:20.502Z,9.34
2022-11-29T15:07:54.637Z,9.33
2022-11-29T15:10:25.450Z,9.00
2022-11-29T15:12:53.503Z,9.28
2022-11-29T15:15:36.389Z,9.27
2022-11-29T15:18:16.399Z,9.22
2022-11-29T15:21:07.285Z,9.19
2022-11-29T15:23:42.274Z,9.12
2022-11-29T15:26:17.554Z,9.14
2022-11-29T15:28:44.625Z,9.08
2022-11-29T15:31:14.721Z,9.06
2022-11-29T15:33:43.691Z,9.03
2022-11-29T15:36:15.967Z,8.87
2022-11-29T15:38:45.965Z,8.99
2022-11-29T15:41:19.651Z,8.91
2022-11-29T15:43:51.025Z,8.96
2022-11-29T15:46:24.357Z,8.89
2022-11-29T15:48:50.919Z,8.86
2022-11-29T15:51:24.682Z,8.78
2022-11-29T15:54:12.115Z,8.74
2022-11-29T15:56:45.097Z,8.53
2022-11-29T15:59:18.524Z,8.61
2022-11-29T16:01:48.106Z,8.50
2022-11-29T16:04:18.563Z,8.44
2022-11-29T16:06:46.958Z,8.37
2022-11-29T16:09:17.452Z,8.15
2022-11-29T16:11:45.184Z,8.24
2022-11-29T16:14:18.762Z,8.15
2022-11-29T16:16:47.677Z,8.07
2022-11-29T16:19:30.137Z,8.00
2022-11-29T16:22:21.910Z,7.91
2022-11-29T16:25:02.512Z,7.79
2022-11-29T16:27:31.909Z,7.73
2022-11-29T16:29:58.616Z,7.68
2022-11-29T16:32:28.867Z,7.64
2022-11-29T16:34:57.007Z,7.62
2022-11-29T16:37:25.669Z,7.58
2022-11-29T16:39:59.315Z,7.55
2022-11-29T16:42:27.438Z,7.50
2022-11-29T16:45:31.227Z,7.44
2022-11-29T16:47:57.923Z,7.26
2022-11-29T16:50:25.653Z,7.23
2022-11-29T16:52:56.552Z,7.16
2022-11-29T16:55:24.881Z,7.13
2022-11-29T16:57:51.418Z,7.10
2022-11-29T17:00:30.249Z,7.06
2022-11-29T17:02:57.023Z,7.03
2022-11-29T17:05:23.712Z,6.91
2022-11-29T17:07:53.340Z,6.98
2022-11-29T17:10:23.707Z,6.85
2022-11-29T17:12:51.646Z,6.96
2022-11-29T17:15:18.248Z,6.98
2022-11-29T17:17:44.890Z,7.07
2022-11-29T17:20:12.468Z,7.06
2022-11-29T17:22:38.977Z,7.06
2022-11-29T17:25:06.169Z,7.00
2022-11-29T17:27:32.742Z,7.05
2022-11-29T17:30:00.621Z,7.04
2022-11-29T17:32:27.332Z,7.03
2022-11-29T17:34:53.943Z,7.02
2022-11-29T17:37:20.463Z,7.02
2022-11-29T17:39:47.190Z,7.02
2022-11-29T17:42:13.837Z,7.02
2022-11-29T17:44:40.335Z,7.04
2022-11-29T17:47:08.214Z,7.02
2022-11-29T17:49:34.857Z,6.84
2022-11-29T17:52:01.450Z,6.95
2022-11-29T17:54:27.992Z,6.88
2022-11-29T17:56:55.048Z,6.83
2022-11-29T17:59:21.568Z,6.76
2022-11-29T18:01:48.183Z,6.71
2022-11-29T18:04:16.177Z,6.66
2022-11-29T18:06:42.693Z,6.56
2022-11-29T18:09:10.520Z,6.57
2022-11-29T18:11:47.104Z,6.51
2022-11-29T18:14:16.222Z,6.34
2022-11-29T18:16:43.112Z,6.22
2022-11-29T18:19:13.220Z,6.29
2022-11-29T18:21:41.318Z,6.23
2022-11-29T18:24:08.986Z,6.19
2022-11-29T18:26:36.527Z,6.15
2022-11-29T18:29:03.733Z,6.15
2022-11-29T18:31:32.370Z,6.15
2022-11-29T18:34:00.395Z,6.12
2022-11-29T18:36:28.672Z,6.12
2022-11-29T18:38:58.215Z,5.83
2022-11-29T18:41:25.383Z,5.98
2022-11-29T18:43:56.946Z,5.91
2022-11-29T18:46:23.764Z,5.82
2022-11-29T18:48:50.338Z,5.81
2022-11-29T18:51:18.708Z,5.72
2022-11-29T18:53:45.982Z,5.73
2022-11-29T18:56:16.314Z,5.68
2022-11-29T18:58:43.766Z,5.83
2022-11-29T19:01:12.628Z,5.76
2022-11-29T19:03:41.251Z,5.89
2022-11-29T19:06:10.043Z,5.89
2022-11-29T19:08:37.797Z,5.87
2022-11-29T19:11:05.228Z,5.85
2022-11-29T19:13:33.774Z,5.78
2022-11-29T19:16:01.369Z,5.84
2022-11-29T19:18:28.356Z,5.82
2022-11-29T19:21:03.605Z,5.82
2022-11-29T19:23:30.287Z,5.79
2022-11-29T19:26:01.754Z,5.81
2022-11-29T19:28:28.397Z,5.80
2022-11-29T19:30:56.471Z,5.79
2022-11-29T19:33:23.152Z,5.78
2022-11-29T19:35:49.721Z,5.74
2022-11-29T19:38:16.521Z,5.84
2022-11-29T19:40:43.375Z,5.88
2022-11-29T19:43:10.015Z,5.90
2022-11-29T19:45:38.734Z,6.02
2022-11-29T19:48:06.891Z,6.02
2022-11-29T19:50:33.427Z,6.02
2022-11-29T19:53:00.022Z,5.05
2022-11-29T19:55:26.536Z,6.01
2022-11-29T19:57:55.352Z,6.01
2022-11-29T20:00:22.371Z,6.03
2022-11-29T20:02:49.013Z,6.03
2022-11-29T20:05:17.164Z,6.08
2022-11-29T20:07:43.792Z,6.10
2022-11-29T20:10:11.152Z,5.77
2022-11-29T20:12:37.780Z,6.15
2022-11-29T20:15:05.320Z,6.17
2022-11-29T20:17:31.892Z,6.19
2022-11-29T20:19:58.446Z,6.23
2022-11-29T20:22:26.420Z,6.23
2022-11-29T20:24:52.951Z,6.21
2022-11-29T20:27:19.558Z,6.19
2022-11-29T20:29:46.343Z,6.17
2022-11-29T20:32:13.194Z,6.19
2022-11-29T20:34:40.771Z,5.97
2022-11-29T20:37:29.876Z,5.94
2022-11-29T20:39:59.950Z,5.98
2022-11-29T20:42:46.504Z,6.03
2022-11-29T20:45:15.098Z,5.87
2022-11-29T20:47:49.473Z,6.13
2022-11-29T20:50:21.736Z,6.14
2022-11-29T20:53:04.951Z,6.16
2022-11-29T20:55:31.757Z,6.00
2022-11-29T20:57:58.277Z,6.19
2022-11-29T21:00:24.949Z,6.25
2022-11-29T21:02:51.505Z,6.30
2022-11-29T21:05:18.683Z,6.33
2022-11-29T21:07:45.281Z,6.33
2022-11-29T21:10:14.045Z,6.34
2022-11-29T21:12:41.262Z,6.36
2022-11-29T21:15:09.931Z,6.04
2022-11-29T21:17:37.075Z,6.32
2022-11-29T21:20:04.674Z,6.43
2022-11-29T21:22:40.817Z,6.46
2022-11-29T21:25:15.368Z,6.49
2022-11-29T21:27:42.421Z,6.51
2022-11-29T21:30:17.463Z,6.56
2022-11-29T21:32:44.783Z,6.56
2022-11-29T21:35:11.440Z,6.57
2022-11-29T21:37:38.305Z,6.61
2022-11-29T21:40:06.302Z,6.31
2022-11-29T21:42:34.260Z,6.65
2022-11-29T21:45:00.766Z,6.66
2022-11-29T21:47:27.371Z,6.69
2022-11-29T21:49:54.684Z,6.69
2022-11-29T21:52:22.982Z,6.70
2022-11-29T21:54:49.944Z,6.70
2022-11-29T21:57:16.694Z,6.71
2022-11-29T21:59:44.725Z,6.70
2022-11-29T22:02:11.446Z,6.73
2022-11-29T22:04:38.068Z,6.74
2022-11-29T22:07:04.689Z,6.76
2022-11-29T22:09:31.204Z,6.77
2022-11-29T22:11:57.802Z,6.79
2022-11-29T22:14:24.439Z,6.81
2022-11-29T22:16:54.080Z,6.81
2022-11-29T22:19:23.000Z,6.81
2022-11-29T22:21:51.401Z,6.80
2022-11-29T22:24:20.563Z,6.80
2022-11-29T22:26:47.602Z,6.79
2022-11-29T22:29:14.791Z,6.81
2022-11-29T22:31:42.222Z,6.82
2022-11-29T22:34:11.109Z,6.85
2022-11-29T22:36:38.385Z,6.87
2022-11-29T22:39:06.017Z,6.89
2022-11-29T22:41:33.653Z,6.90
2022-11-29T22:44:00.315Z,6.93
2022-11-29T22:46:28.047Z,6.95
2022-11-29T22:48:56.596Z,6.96
2022-11-29T22:51:26.685Z,6.98
2022-11-29T22:53:55.017Z,6.99
2022-11-29T22:56:22.526Z,7.00
2022-11-29T22:58:49.076Z,7.01
2022-11-29T23:01:17.519Z,7.03
2022-11-29T23:03:46.206Z,7.03
2022-11-29T23:06:14.280Z,7.04
2022-11-29T23:08:43.582Z,6.99
2022-11-29T23:11:12.010Z,7.08
2022-11-29T23:13:41.399Z,7.09
2022-11-29T23:16:09.912Z,7.10
2022-11-29T23:18:37.005Z,7.09
2022-11-29T23:21:06.240Z,7.05
2022-11-29T23:23:32.855Z,7.12
2022-11-29T23:26:01.398Z,6.99
2022-11-29T23:28:28.775Z,7.16
2022-11-29T23:30:55.604Z,7.18
2022-11-29T23:33:22.813Z,7.18
2022-11-29T23:35:49.610Z,7.19
2022-11-29T23:38:17.374Z,7.21
2022-11-29T23:40:44.276Z,7.11
2022-11-29T23:43:12.132Z,7.23
2022-11-29T23:45:39.238Z,7.23
2022-11-29T23:48:06.074Z,7.24
2022-11-29T23:50:32.633Z,7.23
2022-11-29T23:52:59.330Z,7.24
2022-11-29T23:55:26.274Z,7.24
2022-11-29T23:57:52.845Z,7.25
